sensor_id;sensor_type;location;lat;lon;timestamp;pressure;altitude;pressure_sealevel;temperature;humidity
46506;BME280;32220;49.808;9.968;2023-06-24T00:00:38;99722.84;;;17.69;68.27
46506;BME280;32220;49.808;9.968;2023-06-24T00:03:06;99726.50;;;17.68;68.62
46506;BME280;32220;49.808;9.968;2023-06-24T00:05:34;99731.88;;;17.68;68.36
46506;BME280;32220;49.808;9.968;2023-06-24T00:08:02;99712.44;;;17.53;68.88
46506;BME280;32220;49.808;9.968;2023-06-24T00:10:34;99729.13;;;17.56;68.77
46506;BME280;32220;49.808;9.968;2023-06-24T00:13:02;99734.47;;;17.56;69.21
46506;BME280;32220;49.808;9.968;2023-06-24T00:15:29;99737.53;;;17.52;69.12
46506;BME280;32220;49.808;9.968;2023-06-24T00:17:57;99718.13;;;17.37;69.54
46506;BME280;32220;49.808;9.968;2023-06-24T00:20:31;99710.31;;;17.34;69.89
46506;BME280;32220;49.808;9.968;2023-06-24T00:22:59;99722.41;;;17.40;69.94
46506;BME280;32220;49.808;9.968;2023-06-24T00:25:27;99732.38;;;17.38;69.50
46506;BME280;32220;49.808;9.968;2023-06-24T00:27:56;99722.47;;;17.27;69.94
46506;BME280;32220;49.808;9.968;2023-06-24T00:30:25;99738.31;;;17.30;69.85
46506;BME280;32220;49.808;9.968;2023-06-24T00:32:52;99748.19;;;17.30;70.30
46506;BME280;32220;49.808;9.968;2023-06-24T00:35:20;99743.03;;;17.27;70.27
46506;BME280;32220;49.808;9.968;2023-06-24T00:37:48;99735.56;;;17.19;70.55
46506;BME280;32220;49.808;9.968;2023-06-24T00:40:16;99725.47;;;17.11;70.51
46506;BME280;32220;49.808;9.968;2023-06-24T00:42:44;99736.56;;;17.18;70.41
46506;BME280;32220;49.808;9.968;2023-06-24T00:45:15;99684.81;;;16.82;70.54
46506;BME280;32220;49.808;9.968;2023-06-24T00:47:44;99721.66;;;17.03;70.38
46506;BME280;32220;49.808;9.968;2023-06-24T00:50:12;99731.91;;;17.09;70.41
46506;BME280;32220;49.808;9.968;2023-06-24T00:52:39;99730.28;;;17.06;70.36
46506;BME280;32220;49.808;9.968;2023-06-24T00:55:09;99729.69;;;17.03;70.39
46506;BME280;32220;49.808;9.968;2023-06-24T00:57:38;99728.22;;;16.99;70.81
46506;BME280;32220;49.808;9.968;2023-06-24T01:00:07;99713.28;;;16.83;71.22
46506;BME280;32220;49.808;9.968;2023-06-24T01:02:42;99710.13;;;16.78;71.31
46506;BME280;32220;49.808;9.968;2023-06-24T01:05:11;99726.66;;;16.83;71.43
46506;BME280;32220;49.808;9.968;2023-06-24T01:07:39;99717.13;;;16.68;71.25
46506;BME280;32220;49.808;9.968;2023-06-24T01:10:08;99704.94;;;16.64;71.27
46506;BME280;32220;49.808;9.968;2023-06-24T01:12:40;99723.56;;;16.66;71.17
46506;BME280;32220;49.808;9.968;2023-06-24T01:15:10;99723.66;;;16.64;71.12
46506;BME280;32220;49.808;9.968;2023-06-24T01:17:44;99707.63;;;16.51;71.61
46506;BME280;32220;49.808;9.968;2023-06-24T01:20:23;99695.66;;;16.44;71.46
46506;BME280;32220;49.808;9.968;2023-06-24T01:23:11;99722.41;;;16.44;71.69
46506;BME280;32220;49.808;9.968;2023-06-24T01:29:07;99718.38;;;16.39;71.78
46506;BME280;32220;49.808;9.968;2023-06-24T01:31:41;99704.59;;;16.20;71.65
46506;BME280;32220;49.808;9.968;2023-06-24T01:34:19;99713.91;;;16.27;71.54
46506;BME280;32220;49.808;9.968;2023-06-24T01:37:05;99660.53;;;15.89;72.11
46506;BME280;32220;49.808;9.968;2023-06-24T01:39:39;99688.75;;;16.05;71.49
46506;BME280;32220;49.808;9.968;2023-06-24T01:42:11;99690.44;;;16.06;72.03
46506;BME280;32220;49.808;9.968;2023-06-24T01:44:43;99705.81;;;16.15;71.80
46506;BME280;32220;49.808;9.968;2023-06-24T01:47:16;99709.66;;;16.11;71.99
46506;BME280;32220;49.808;9.968;2023-06-24T01:49:46;99706.22;;;16.09;72.51
46506;BME280;32220;49.808;9.968;2023-06-24T01:52:16;99702.00;;;16.07;72.68
46506;BME280;32220;49.808;9.968;2023-06-24T01:54:46;99704.78;;;16.05;72.35
46506;BME280;32220;49.808;9.968;2023-06-24T01:57:16;99707.44;;;16.05;72.54
46506;BME280;32220;49.808;9.968;2023-06-24T01:59:45;99715.66;;;16.02;73.21
46506;BME280;32220;49.808;9.968;2023-06-24T02:02:17;99684.91;;;15.84;73.46
46506;BME280;32220;49.808;9.968;2023-06-24T02:04:47;99718.66;;;15.98;73.48
46506;BME280;32220;49.808;9.968;2023-06-24T02:07:18;99684.91;;;15.71;73.80
46506;BME280;32220;49.808;9.968;2023-06-24T02:09:49;99696.78;;;15.80;73.94
46506;BME280;32220;49.808;9.968;2023-06-24T02:12:19;99706.28;;;15.84;74.41
46506;BME280;32220;49.808;9.968;2023-06-24T02:14:49;99708.22;;;15.82;73.88
46506;BME280;32220;49.808;9.968;2023-06-24T02:17:20;99694.63;;;15.72;74.51
46506;BME280;32220;49.808;9.968;2023-06-24T02:19:49;99697.00;;;15.77;74.34
46506;BME280;32220;49.808;9.968;2023-06-24T02:22:18;99694.75;;;15.71;74.67
46506;BME280;32220;49.808;9.968;2023-06-24T02:24:48;99701.59;;;15.75;74.67
46506;BME280;32220;49.808;9.968;2023-06-24T02:27:17;99684.91;;;15.59;74.55
46506;BME280;32220;49.808;9.968;2023-06-24T02:29:45;99697.31;;;15.60;74.40
46506;BME280;32220;49.808;9.968;2023-06-24T02:32:14;99716.34;;;15.68;74.71
46506;BME280;32220;49.808;9.968;2023-06-24T02:34:43;99688.94;;;15.52;74.90
46506;BME280;32220;49.808;9.968;2023-06-24T02:37:11;99703.28;;;15.63;74.71
46506;BME280;32220;49.808;9.968;2023-06-24T02:39:39;99684.47;;;15.52;74.85
46506;BME280;32220;49.808;9.968;2023-06-24T02:42:10;99702.53;;;15.61;74.77
46506;BME280;32220;49.808;9.968;2023-06-24T02:44:39;99685.53;;;15.50;74.81
46506;BME280;32220;49.808;9.968;2023-06-24T02:47:09;99682.34;;;15.44;74.82
46506;BME280;32220;49.808;9.968;2023-06-24T02:49:37;99697.41;;;15.58;74.87
46506;BME280;32220;49.808;9.968;2023-06-24T02:52:08;99699.25;;;15.58;74.97
46506;BME280;32220;49.808;9.968;2023-06-24T02:54:36;99667.50;;;15.40;75.31
46506;BME280;32220;49.808;9.968;2023-06-24T02:57:26;99705.56;;;15.57;74.97
46506;BME280;32220;49.808;9.968;2023-06-24T03:00:13;99696.22;;;15.50;75.01
46506;BME280;32220;49.808;9.968;2023-06-24T03:03:05;99710.16;;;15.55;75.00
46506;BME280;32220;49.808;9.968;2023-06-24T03:05:35;99696.66;;;15.43;75.19
46506;BME280;32220;49.808;9.968;2023-06-24T03:08:06;99712.13;;;15.51;75.59
46506;BME280;32220;49.808;9.968;2023-06-24T03:10:36;99708.81;;;15.48;75.45
46506;BME280;32220;49.808;9.968;2023-06-24T03:13:06;99710.31;;;15.52;75.51
46506;BME280;32220;49.808;9.968;2023-06-24T03:15:45;99697.50;;;15.44;75.49
46506;BME280;32220;49.808;9.968;2023-06-24T03:18:13;99710.41;;;15.50;75.96
46506;BME280;32220;49.808;9.968;2023-06-24T03:20:42;99695.78;;;15.43;75.77
46506;BME280;32220;49.808;9.968;2023-06-24T03:23:17;99688.09;;;15.38;75.99
46506;BME280;32220;49.808;9.968;2023-06-24T03:25:45;99699.94;;;15.47;76.30
46506;BME280;32220;49.808;9.968;2023-06-24T03:28:13;99723.16;;;15.59;76.82
46506;BME280;32220;49.808;9.968;2023-06-24T03:30:46;99722.84;;;15.64;77.64
46506;BME280;32220;49.808;9.968;2023-06-24T03:33:18;99719.22;;;15.65;77.81
46506;BME280;32220;49.808;9.968;2023-06-24T03:35:46;99717.91;;;15.70;77.41
46506;BME280;32220;49.808;9.968;2023-06-24T03:38:20;99707.69;;;15.64;77.48
46506;BME280;32220;49.808;9.968;2023-06-24T03:40:48;99709.59;;;15.75;77.58
46506;BME280;32220;49.808;9.968;2023-06-24T03:43:16;99708.00;;;15.72;77.54
46506;BME280;32220;49.808;9.968;2023-06-24T03:45:44;99718.16;;;15.80;77.88
46506;BME280;32220;49.808;9.968;2023-06-24T03:48:12;99723.16;;;15.85;77.96
46506;BME280;32220;49.808;9.968;2023-06-24T03:50:40;99720.16;;;15.89;77.74
46506;BME280;32220;49.808;9.968;2023-06-24T03:53:07;99725.91;;;15.96;77.64
46506;BME280;32220;49.808;9.968;2023-06-24T03:55:37;99728.28;;;16.00;77.58
46506;BME280;32220;49.808;9.968;2023-06-24T03:58:05;99731.50;;;16.05;77.40
46506;BME280;32220;49.808;9.968;2023-06-24T04:00:34;99739.25;;;16.08;77.53
46506;BME280;32220;49.808;9.968;2023-06-24T04:03:06;99743.66;;;16.09;77.36
46506;BME280;32220;49.808;9.968;2023-06-24T04:05:34;99740.66;;;16.14;77.09
46506;BME280;32220;49.808;9.968;2023-06-24T04:08:02;99731.25;;;16.08;76.85
46506;BME280;32220;49.808;9.968;2023-06-24T04:10:33;99740.00;;;16.23;76.84
46506;BME280;32220;49.808;9.968;2023-06-24T04:13:03;99740.44;;;16.30;76.61
46506;BME280;32220;49.808;9.968;2023-06-24T04:15:31;99748.75;;;16.38;76.40
46506;BME280;32220;49.808;9.968;2023-06-24T04:17:59;99745.09;;;16.39;76.43
46506;BME280;32220;49.808;9.968;2023-06-24T04:20:26;99741.25;;;16.43;76.21
46506;BME280;32220;49.808;9.968;2023-06-24T04:22:54;99747.22;;;16.46;75.83
46506;BME280;32220;49.808;9.968;2023-06-24T04:25:22;99761.28;;;16.61;76.00
46506;BME280;32220;49.808;9.968;2023-06-24T04:27:50;99749.09;;;16.57;75.56
46506;BME280;32220;49.808;9.968;2023-06-24T04:30:20;99753.81;;;16.66;75.62
46506;BME280;32220;49.808;9.968;2023-06-24T04:32:47;99761.69;;;16.80;75.24
46506;BME280;32220;49.808;9.968;2023-06-24T04:35:15;99760.25;;;16.87;75.27
46506;BME280;32220;49.808;9.968;2023-06-24T04:37:43;99775.88;;;16.94;75.15
46506;BME280;32220;49.808;9.968;2023-06-24T04:40:12;99777.13;;;17.01;75.29
46506;BME280;32220;49.808;9.968;2023-06-24T04:42:40;99789.06;;;17.08;75.22
46506;BME280;32220;49.808;9.968;2023-06-24T04:45:08;99768.41;;;17.10;74.92
46506;BME280;32220;49.808;9.968;2023-06-24T04:47:38;99786.75;;;17.27;75.26
46506;BME280;32220;49.808;9.968;2023-06-24T04:50:07;99786.03;;;17.36;75.33
46506;BME280;32220;49.808;9.968;2023-06-24T04:52:36;99781.34;;;17.51;75.14
46506;BME280;32220;49.808;9.968;2023-06-24T04:55:04;99765.16;;;17.52;74.91
46506;BME280;32220;49.808;9.968;2023-06-24T04:57:33;99773.03;;;17.67;74.56
46506;BME280;32220;49.808;9.968;2023-06-24T05:00:02;99782.81;;;17.79;74.29
46506;BME280;32220;49.808;9.968;2023-06-24T05:02:31;99783.78;;;17.89;74.47
46506;BME280;32220;49.808;9.968;2023-06-24T05:05:00;99795.25;;;18.02;74.28
46506;BME280;32220;49.808;9.968;2023-06-24T05:07:28;99785.50;;;18.12;74.16
46506;BME280;32220;49.808;9.968;2023-06-24T05:09:56;99765.78;;;18.13;73.84
46506;BME280;32220;49.808;9.968;2023-06-24T05:12:23;99790.13;;;18.33;73.56
46506;BME280;32220;49.808;9.968;2023-06-24T05:14:51;99771.63;;;18.29;73.83
46506;BME280;32220;49.808;9.968;2023-06-24T05:17:19;99779.41;;;18.44;73.43
46506;BME280;32220;49.808;9.968;2023-06-24T05:19:47;99801.13;;;18.63;72.99
46506;BME280;32220;49.808;9.968;2023-06-24T05:22:17;99802.09;;;18.73;73.11
46506;BME280;32220;49.808;9.968;2023-06-24T05:24:44;99806.47;;;18.85;72.96
46506;BME280;32220;49.808;9.968;2023-06-24T05:27:12;99803.75;;;18.96;72.50
46506;BME280;32220;49.808;9.968;2023-06-24T05:29:40;99801.03;;;19.08;72.38
46506;BME280;32220;49.808;9.968;2023-06-24T05:32:08;99796.59;;;19.18;72.04
46506;BME280;32220;49.808;9.968;2023-06-24T05:34:35;99792.19;;;19.28;72.18
46506;BME280;32220;49.808;9.968;2023-06-24T05:37:03;99801.19;;;19.38;71.98
46506;BME280;32220;49.808;9.968;2023-06-24T05:39:33;99796.66;;;19.50;71.34
46506;BME280;32220;49.808;9.968;2023-06-24T05:42:00;99791.34;;;19.59;71.09
46506;BME280;32220;49.808;9.968;2023-06-24T05:44:28;99791.28;;;19.70;71.03
46506;BME280;32220;49.808;9.968;2023-06-24T05:46:56;99780.00;;;19.77;70.70
46506;BME280;32220;49.808;9.968;2023-06-24T05:49:23;99804.31;;;19.96;70.41
46506;BME280;32220;49.808;9.968;2023-06-24T05:51:51;99810.59;;;20.06;69.85
46506;BME280;32220;49.808;9.968;2023-06-24T05:54:19;99809.53;;;20.18;69.36
46506;BME280;32220;49.808;9.968;2023-06-24T05:56:48;99811.03;;;20.32;68.98
46506;BME280;32220;49.808;9.968;2023-06-24T05:59:15;99798.91;;;20.37;68.58
46506;BME280;32220;49.808;9.968;2023-06-24T06:01:43;99815.13;;;20.57;67.51
46506;BME280;32220;49.808;9.968;2023-06-24T06:04:11;99803.38;;;20.58;67.35
46506;BME280;32220;49.808;9.968;2023-06-24T06:06:39;99820.59;;;20.76;66.61
46506;BME280;32220;49.808;9.968;2023-06-24T06:09:07;99818.78;;;20.86;66.63
46506;BME280;32220;49.808;9.968;2023-06-24T06:11:34;99816.97;;;20.96;66.50
46506;BME280;32220;49.808;9.968;2023-06-24T06:14:04;99807.63;;;21.00;66.21
46506;BME280;32220;49.808;9.968;2023-06-24T06:16:31;99819.03;;;21.23;65.63
46506;BME280;32220;49.808;9.968;2023-06-24T06:18:59;99822.16;;;21.38;65.46
46506;BME280;32220;49.808;9.968;2023-06-24T06:21:27;99828.94;;;21.51;64.34
46506;BME280;32220;49.808;9.968;2023-06-24T06:23:55;99809.94;;;21.53;64.46
46506;BME280;32220;49.808;9.968;2023-06-24T06:26:22;99839.19;;;21.86;63.58
46506;BME280;32220;49.808;9.968;2023-06-24T06:28:50;99830.66;;;22.01;63.24
46506;BME280;32220;49.808;9.968;2023-06-24T06:31:21;99814.19;;;22.04;62.56
46506;BME280;32220;49.808;9.968;2023-06-24T06:33:49;99822.94;;;22.25;62.63
46506;BME280;32220;49.808;9.968;2023-06-24T06:36:16;99824.63;;;22.36;60.81
46506;BME280;32220;49.808;9.968;2023-06-24T06:38:44;99824.28;;;22.48;60.74
46506;BME280;32220;49.808;9.968;2023-06-24T06:41:12;99815.38;;;22.66;60.14
46506;BME280;32220;49.808;9.968;2023-06-24T06:43:40;99815.97;;;22.97;59.45
46506;BME280;32220;49.808;9.968;2023-06-24T06:46:07;99822.97;;;23.35;58.17
46506;BME280;32220;49.808;9.968;2023-06-24T06:48:37;99816.88;;;23.50;57.98
46506;BME280;32220;49.808;9.968;2023-06-24T06:51:05;99828.75;;;23.75;57.57
46506;BME280;32220;49.808;9.968;2023-06-24T06:53:32;99818.34;;;23.80;57.00
46506;BME280;32220;49.808;9.968;2023-06-24T06:56:00;99820.09;;;23.89;57.19
46506;BME280;32220;49.808;9.968;2023-06-24T06:58:28;99828.59;;;23.94;56.12
46506;BME280;32220;49.808;9.968;2023-06-24T07:00:55;99807.56;;;23.88;56.09
46506;BME280;32220;49.808;9.968;2023-06-24T07:03:27;99825.16;;;24.10;55.77
46506;BME280;32220;49.808;9.968;2023-06-24T07:05:57;99808.09;;;24.10;55.22
46506;BME280;32220;49.808;9.968;2023-06-24T07:08:25;99812.75;;;24.25;55.47
46506;BME280;32220;49.808;9.968;2023-06-24T07:10:52;99814.03;;;24.39;54.47
46506;BME280;32220;49.808;9.968;2023-06-24T07:13:20;99812.63;;;24.61;54.00
46506;BME280;32220;49.808;9.968;2023-06-24T07:15:48;99795.41;;;24.70;54.71
46506;BME280;32220;49.808;9.968;2023-06-24T07:18:16;99815.00;;;24.98;54.09
46506;BME280;32220;49.808;9.968;2023-06-24T07:20:44;99819.63;;;25.14;52.72
46506;BME280;32220;49.808;9.968;2023-06-24T07:23:13;99833.72;;;25.25;51.67
46506;BME280;32220;49.808;9.968;2023-06-24T07:25:41;99819.31;;;25.25;51.47
46506;BME280;32220;49.808;9.968;2023-06-24T07:28:09;99829.69;;;25.46;52.07
46506;BME280;32220;49.808;9.968;2023-06-24T07:30:37;99802.59;;;25.46;51.13
46506;BME280;32220;49.808;9.968;2023-06-24T07:33:04;99838.25;;;25.83;50.27
46506;BME280;32220;49.808;9.968;2023-06-24T07:35:32;99854.84;;;26.12;49.51
46506;BME280;32220;49.808;9.968;2023-06-24T07:38:01;99850.28;;;26.29;47.76
46506;BME280;32220;49.808;9.968;2023-06-24T07:40:30;99861.22;;;26.68;47.92
46506;BME280;32220;49.808;9.968;2023-06-24T07:42:58;99853.28;;;27.06;47.46
46506;BME280;32220;49.808;9.968;2023-06-24T07:45:25;99871.63;;;27.43;45.92
46506;BME280;32220;49.808;9.968;2023-06-24T07:47:53;99864.66;;;27.94;44.83
46506;BME280;32220;49.808;9.968;2023-06-24T07:50:21;99881.38;;;28.81;43.06
46506;BME280;32220;49.808;9.968;2023-06-24T07:52:50;99858.66;;;29.24;42.48
46506;BME280;32220;49.808;9.968;2023-06-24T07:55:17;99884.19;;;29.89;41.05
46506;BME280;32220;49.808;9.968;2023-06-24T07:57:47;99892.03;;;31.03;39.77
46506;BME280;32220;49.808;9.968;2023-06-24T08:00:15;99912.91;;;32.79;36.52
46506;BME280;32220;49.808;9.968;2023-06-24T08:02:43;99924.41;;;34.66;34.18
46506;BME280;32220;49.808;9.968;2023-06-24T08:05:11;99917.94;;;36.30;31.12
46506;BME280;32220;49.808;9.968;2023-06-24T08:07:39;99949.16;;;37.87;29.10
46506;BME280;32220;49.808;9.968;2023-06-24T08:10:07;99941.53;;;38.90;27.75
46506;BME280;32220;49.808;9.968;2023-06-24T08:12:35;99915.31;;;39.58;26.60
46506;BME280;32220;49.808;9.968;2023-06-24T08:15:05;99948.84;;;40.90;25.92
46506;BME280;32220;49.808;9.968;2023-06-24T08:17:33;99954.28;;;41.75;24.13
46506;BME280;32220;49.808;9.968;2023-06-24T08:20:01;99957.19;;;42.30;22.81
46506;BME280;32220;49.808;9.968;2023-06-24T08:22:30;99947.47;;;42.58;23.60
46506;BME280;32220;49.808;9.968;2023-06-24T08:24:58;99937.72;;;42.51;22.83
46506;BME280;32220;49.808;9.968;2023-06-24T08:27:26;99937.13;;;42.18;23.50
46506;BME280;32220;49.808;9.968;2023-06-24T08:29:54;99905.03;;;41.80;23.52
46506;BME280;32220;49.808;9.968;2023-06-24T08:32:23;99943.00;;;41.39;23.23
46506;BME280;32220;49.808;9.968;2023-06-24T08:34:51;99921.41;;;40.67;24.05
46506;BME280;32220;49.808;9.968;2023-06-24T08:37:18;99922.59;;;40.12;24.67
46506;BME280;32220;49.808;9.968;2023-06-24T08:39:48;99902.88;;;39.38;24.95
46506;BME280;32220;49.808;9.968;2023-06-24T08:42:16;99901.66;;;38.91;26.05
46506;BME280;32220;49.808;9.968;2023-06-24T08:44:44;99906.56;;;38.50;26.19
46506;BME280;32220;49.808;9.968;2023-06-24T08:47:12;99925.00;;;38.11;24.74
46506;BME280;32220;49.808;9.968;2023-06-24T08:49:46;99890.94;;;37.14;26.50
46506;BME280;32220;49.808;9.968;2023-06-24T08:52:16;99895.19;;;36.81;27.50
46506;BME280;32220;49.808;9.968;2023-06-24T08:54:46;99894.31;;;36.46;27.51
46506;BME280;32220;49.808;9.968;2023-06-24T08:57:15;99896.72;;;36.00;27.55
46506;BME280;32220;49.808;9.968;2023-06-24T08:59:44;99880.50;;;35.81;29.34
46506;BME280;32220;49.808;9.968;2023-06-24T09:02:13;99896.25;;;35.74;27.46
46506;BME280;32220;49.808;9.968;2023-06-24T09:04:42;99885.94;;;36.11;28.51
46506;BME280;32220;49.808;9.968;2023-06-24T09:07:10;99899.94;;;36.39;26.92
46506;BME280;32220;49.808;9.968;2023-06-24T09:09:42;99917.28;;;36.16;26.07
46506;BME280;32220;49.808;9.968;2023-06-24T09:12:13;99901.09;;;36.20;26.80
46506;BME280;32220;49.808;9.968;2023-06-24T09:14:41;99884.50;;;36.73;26.55
46506;BME280;32220;49.808;9.968;2023-06-24T09:17:08;99894.91;;;37.06;25.81
46506;BME280;32220;49.808;9.968;2023-06-24T09:19:37;99887.53;;;36.72;26.14
46506;BME280;32220;49.808;9.968;2023-06-24T09:22:08;99866.72;;;36.34;27.39
46506;BME280;32220;49.808;9.968;2023-06-24T09:24:42;99872.34;;;36.39;26.59
46506;BME280;32220;49.808;9.968;2023-06-24T09:27:12;99886.63;;;36.48;26.28
46506;BME280;32220;49.808;9.968;2023-06-24T09:29:41;99886.25;;;37.14;25.96
46506;BME280;32220;49.808;9.968;2023-06-24T09:32:10;99872.97;;;37.39;25.72
46506;BME280;32220;49.808;9.968;2023-06-24T09:34:38;99869.56;;;37.49;25.74
46506;BME280;32220;49.808;9.968;2023-06-24T09:37:07;99859.03;;;36.48;26.68
46506;BME280;32220;49.808;9.968;2023-06-24T09:39:36;99861.88;;;35.46;27.10
46506;BME280;32220;49.808;9.968;2023-06-24T09:42:05;99852.34;;;34.94;28.09
46506;BME280;32220;49.808;9.968;2023-06-24T09:44:34;99858.88;;;34.56;29.21
46506;BME280;32220;49.808;9.968;2023-06-24T09:47:02;99847.97;;;33.94;29.57
46506;BME280;32220;49.808;9.968;2023-06-24T09:49:30;99802.63;;;33.02;29.99
46506;BME280;32220;49.808;9.968;2023-06-24T09:51:58;99849.91;;;35.22;28.37
46506;BME280;32220;49.808;9.968;2023-06-24T09:54:28;99862.31;;;37.60;25.91
46506;BME280;32220;49.808;9.968;2023-06-24T09:56:59;99873.97;;;38.91;24.34
46506;BME280;32220;49.808;9.968;2023-06-24T09:59:30;99858.63;;;39.43;24.08
46506;BME280;32220;49.808;9.968;2023-06-24T10:01:59;99878.84;;;39.71;22.65
46506;BME280;32220;49.808;9.968;2023-06-24T10:04:28;99867.94;;;39.37;23.24
46506;BME280;32220;49.808;9.968;2023-06-24T10:06:56;99868.25;;;38.42;23.62
46506;BME280;32220;49.808;9.968;2023-06-24T10:09:23;99837.91;;;37.85;25.10
46506;BME280;32220;49.808;9.968;2023-06-24T10:11:53;99784.72;;;37.50;25.88
46506;BME280;32220;49.808;9.968;2023-06-24T10:14:21;99806.53;;;37.06;26.26
46506;BME280;32220;49.808;9.968;2023-06-24T10:16:48;99799.28;;;36.18;26.59
46506;BME280;32220;49.808;9.968;2023-06-24T10:19:19;99812.97;;;36.37;27.16
46506;BME280;32220;49.808;9.968;2023-06-24T10:21:50;99821.25;;;36.72;26.59
46506;BME280;32220;49.808;9.968;2023-06-24T10:24:28;99826.63;;;36.78;26.16
46506;BME280;32220;49.808;9.968;2023-06-24T10:27:03;99824.59;;;36.74;26.45
46506;BME280;32220;49.808;9.968;2023-06-24T10:29:31;99841.75;;;36.41;24.60
46506;BME280;32220;49.808;9.968;2023-06-24T10:32:04;99825.63;;;36.14;25.70
46506;BME280;32220;49.808;9.968;2023-06-24T10:34:34;99820.00;;;35.97;26.13
46506;BME280;32220;49.808;9.968;2023-06-24T10:37:03;99812.34;;;36.23;27.54
46506;BME280;32220;49.808;9.968;2023-06-24T10:39:36;99820.28;;;36.54;25.87
46506;BME280;32220;49.808;9.968;2023-06-24T10:42:28;99809.72;;;36.75;25.22
46506;BME280;32220;49.808;9.968;2023-06-24T10:44:56;99782.53;;;36.95;26.12
46506;BME280;32220;49.808;9.968;2023-06-24T10:47:25;99790.63;;;37.13;25.87
46506;BME280;32220;49.808;9.968;2023-06-24T10:49:53;99794.75;;;36.99;25.62
46506;BME280;32220;49.808;9.968;2023-06-24T10:52:22;99796.25;;;36.66;24.72
46506;BME280;32220;49.808;9.968;2023-06-24T10:54:51;99779.13;;;36.53;25.65
46506;BME280;32220;49.808;9.968;2023-06-24T10:57:24;99771.56;;;36.37;25.80
46506;BME280;32220;49.808;9.968;2023-06-24T10:59:55;99775.16;;;36.14;27.00
46506;BME280;32220;49.808;9.968;2023-06-24T11:02:25;99752.38;;;36.07;26.28
46506;BME280;32220;49.808;9.968;2023-06-24T11:04:55;99763.88;;;36.04;26.91
46506;BME280;32220;49.808;9.968;2023-06-24T11:07:25;99762.59;;;35.53;27.25
46506;BME280;32220;49.808;9.968;2023-06-24T11:09:55;99762.13;;;34.96;26.70
46506;BME280;32220;49.808;9.968;2023-06-24T11:12:24;99763.97;;;34.47;28.11
46506;BME280;32220;49.808;9.968;2023-06-24T11:14:57;99747.16;;;34.12;29.08
46506;BME280;32220;49.808;9.968;2023-06-24T11:17:27;99743.81;;;33.85;29.64
46506;BME280;32220;49.808;9.968;2023-06-24T11:19:56;99736.38;;;33.61;30.29
46506;BME280;32220;49.808;9.968;2023-06-24T11:22:25;99719.28;;;33.28;30.79
46506;BME280;32220;49.808;9.968;2023-06-24T11:24:54;99732.28;;;33.70;30.89
46506;BME280;32220;49.808;9.968;2023-06-24T11:27:26;99745.41;;;34.18;30.03
46506;BME280;32220;49.808;9.968;2023-06-24T11:29:57;99710.94;;;34.15;28.61
46506;BME280;32220;49.808;9.968;2023-06-24T11:32:35;99742.25;;;34.76;29.40
46506;BME280;32220;49.808;9.968;2023-06-24T11:35:04;99721.88;;;34.95;29.29
46506;BME280;32220;49.808;9.968;2023-06-24T11:37:32;99745.59;;;35.26;27.63
46506;BME280;32220;49.808;9.968;2023-06-24T11:40:02;99744.47;;;35.15;28.13
46506;BME280;32220;49.808;9.968;2023-06-24T11:42:31;99738.25;;;34.90;28.69
46506;BME280;32220;49.808;9.968;2023-06-24T11:45:01;99720.81;;;34.96;29.25
46506;BME280;32220;49.808;9.968;2023-06-24T11:47:33;99745.06;;;35.36;27.82
46506;BME280;32220;49.808;9.968;2023-06-24T11:50:04;99745.78;;;35.84;27.08
46506;BME280;32220;49.808;9.968;2023-06-24T11:52:38;99728.31;;;36.65;27.20
46506;BME280;32220;49.808;9.968;2023-06-24T11:55:15;99752.38;;;37.79;25.73
46506;BME280;32220;49.808;9.968;2023-06-24T11:57:48;99743.09;;;38.84;25.24
46506;BME280;32220;49.808;9.968;2023-06-24T12:00:19;99766.13;;;39.33;22.45
46506;BME280;32220;49.808;9.968;2023-06-24T12:02:50;99750.41;;;38.90;22.66
46506;BME280;32220;49.808;9.968;2023-06-24T12:05:26;99769.63;;;38.58;21.71
46506;BME280;32220;49.808;9.968;2023-06-24T12:07:55;99763.50;;;37.67;23.35
46506;BME280;32220;49.808;9.968;2023-06-24T12:10:24;99717.94;;;36.96;25.30
46506;BME280;32220;49.808;9.968;2023-06-24T12:12:52;99746.97;;;38.22;23.98
46506;BME280;32220;49.808;9.968;2023-06-24T12:15:21;99746.50;;;39.93;23.51
46506;BME280;32220;49.808;9.968;2023-06-24T12:17:49;99754.47;;;41.92;20.70
46506;BME280;32220;49.808;9.968;2023-06-24T12:20:17;99763.38;;;43.58;19.53
46506;BME280;32220;49.808;9.968;2023-06-24T12:22:46;99754.50;;;44.91;18.07
46506;BME280;32220;49.808;9.968;2023-06-24T12:29:09;99763.53;;;47.24;16.80
46506;BME280;32220;49.808;9.968;2023-06-24T12:31:38;99756.63;;;47.79;15.83
46506;BME280;32220;49.808;9.968;2023-06-24T12:34:05;99753.41;;;48.17;15.23
46506;BME280;32220;49.808;9.968;2023-06-24T12:36:33;99749.16;;;48.68;15.29
46506;BME280;32220;49.808;9.968;2023-06-24T12:39:01;99741.63;;;48.94;15.30
46506;BME280;32220;49.808;9.968;2023-06-24T12:41:29;99744.00;;;49.35;15.40
46506;BME280;32220;49.808;9.968;2023-06-24T12:43:57;99745.47;;;49.76;14.70
46506;BME280;32220;49.808;9.968;2023-06-24T12:46:25;99730.06;;;49.73;14.29
46506;BME280;32220;49.808;9.968;2023-06-24T12:48:53;99727.28;;;48.56;14.79
46506;BME280;32220;49.808;9.968;2023-06-24T12:51:22;99712.38;;;47.04;15.15
46506;BME280;32220;49.808;9.968;2023-06-24T12:53:50;99711.53;;;45.75;16.27
46506;BME280;32220;49.808;9.968;2023-06-24T12:56:17;99711.88;;;45.74;16.61
46506;BME280;32220;49.808;9.968;2023-06-24T12:58:44;99689.63;;;44.51;17.52
46506;BME280;32220;49.808;9.968;2023-06-24T13:01:12;99699.59;;;43.03;18.52
46506;BME280;32220;49.808;9.968;2023-06-24T13:03:40;99686.03;;;41.40;19.37
46506;BME280;32220;49.808;9.968;2023-06-24T13:06:09;99684.22;;;40.73;19.95
46506;BME280;32220;49.808;9.968;2023-06-24T13:08:36;99632.47;;;40.52;19.72
46506;BME280;32220;49.808;9.968;2023-06-24T13:11:04;99689.66;;;41.81;18.75
46506;BME280;32220;49.808;9.968;2023-06-24T13:13:31;99682.53;;;43.48;18.92
46506;BME280;32220;49.808;9.968;2023-06-24T13:15:59;99674.72;;;44.80;17.41
46506;BME280;32220;49.808;9.968;2023-06-24T13:18:26;99670.88;;;45.64;16.06